createdAt,value
2018-01-31T01:52:21.781Z,1008.52
2018-01-31T01:52:52.092Z,1008.53
2018-01-31T01:54:45.134Z,1008.42
2018-01-31T01:55:45.209Z,1008.51
2018-01-31T01:57:38.237Z,1008.36
2018-01-31T01:58:38.328Z,1008.41
2018-01-31T02:00:32.364Z,1008.29
2018-01-31T02:01:32.440Z,1008.27
2018-01-31T02:03:25.466Z,1008.22
2018-01-31T02:04:25.551Z,1008.16
2018-01-31T02:06:19.604Z,1008.10
2018-01-31T02:07:19.664Z,1008.02
2018-01-31T02:09:12.693Z,1007.96
2018-01-31T02:10:12.782Z,1007.92
2018-01-31T02:12:05.808Z,1007.84
2018-01-31T02:13:05.894Z,1007.82
2018-01-31T02:14:58.928Z,1007.74
2018-01-31T02:15:59.003Z,1007.73
2018-01-31T02:17:52.033Z,1007.58
2018-01-31T02:18:52.115Z,1007.56
2018-01-31T02:20:45.146Z,1007.53
2018-01-31T02:21:45.223Z,1007.52
2018-01-31T02:23:38.255Z,1007.46
2018-01-31T02:24:38.337Z,1007.37
2018-01-31T02:26:32.410Z,1007.31
2018-01-31T02:27:32.452Z,1007.28
2018-01-31T02:29:25.508Z,1007.25
2018-01-31T02:30:25.596Z,1007.21
2018-01-31T02:32:18.598Z,1007.19
2018-01-31T02:33:18.681Z,1007.21
2018-01-31T02:35:12.720Z,1007.17
2018-01-31T02:36:12.804Z,1007.11
2018-01-31T02:38:05.836Z,1007.05
2018-01-31T02:39:05.908Z,1007.00
2018-01-31T02:40:58.946Z,1006.97
2018-01-31T02:41:59.030Z,1006.92
2018-01-31T02:43:52.057Z,1006.83
2018-01-31T02:44:52.146Z,1006.84
2018-01-31T02:46:45.172Z,1006.78
2018-01-31T02:47:45.260Z,1006.75
2018-01-31T02:49:38.289Z,1006.73
2018-01-31T02:50:38.370Z,1006.65
2018-01-31T02:52:32.410Z,1006.61
2018-01-31T02:53:32.485Z,1006.61
2018-01-31T02:55:25.525Z,1006.53
2018-01-31T02:56:25.601Z,1006.45
2018-01-31T02:58:18.659Z,1006.37
2018-01-31T02:59:18.715Z,1006.33
2018-01-31T03:01:11.754Z,1006.24
2018-01-31T03:02:11.824Z,1006.26
2018-01-31T03:04:04.860Z,1006.22
2018-01-31T03:05:04.943Z,1006.12
2018-01-31T03:06:57.975Z,1006.07
2018-01-31T03:07:58.050Z,1005.99
2018-01-31T03:09:52.098Z,1005.94
2018-01-31T03:10:52.182Z,1005.88
2018-01-31T03:12:45.206Z,1005.84
2018-01-31T03:13:45.284Z,1005.85
2018-01-31T03:15:38.319Z,1005.76
2018-01-31T03:16:38.399Z,1005.66
2018-01-31T03:18:31.427Z,1005.61
2018-01-31T03:19:31.517Z,1005.60
2018-01-31T03:21:24.553Z,1005.53
2018-01-31T03:22:24.619Z,1005.47
2018-01-31T03:24:17.652Z,1005.45
2018-01-31T03:25:17.733Z,1005.44
2018-01-31T03:27:10.762Z,1005.40
2018-01-31T03:28:10.844Z,1005.37
2018-01-31T03:30:03.871Z,1005.32
2018-01-31T03:31:03.955Z,1005.36
2018-01-31T03:32:56.983Z,1005.32
2018-01-31T03:33:57.067Z,1005.29
2018-01-31T03:35:50.095Z,1005.15
2018-01-31T03:36:50.179Z,1005.16
2018-01-31T03:38:43.209Z,1005.13
2018-01-31T03:39:43.284Z,1005.09
2018-01-31T03:41:37.319Z,1005.07
2018-01-31T03:42:37.404Z,1005.03
2018-01-31T03:44:30.432Z,1004.99
2018-01-31T03:45:30.521Z,1004.95
2018-01-31T03:47:23.548Z,1004.90
2018-01-31T03:48:23.628Z,1004.88
2018-01-31T03:50:16.676Z,1004.83
2018-01-31T03:51:16.741Z,1004.76
2018-01-31T03:53:09.769Z,1004.75
2018-01-31T03:54:09.849Z,1004.69
2018-01-31T03:56:02.888Z,1004.67
2018-01-31T03:57:02.969Z,1004.67
2018-01-31T03:58:56.008Z,1004.56
2018-01-31T03:59:56.079Z,1004.59
2018-01-31T04:01:49.119Z,1004.49
2018-01-31T04:02:49.200Z,1004.42
2018-01-31T04:04:43.251Z,1004.44
2018-01-31T04:05:43.323Z,1004.43
2018-01-31T04:07:36.373Z,1004.41
2018-01-31T04:08:36.437Z,1004.41
2018-01-31T04:10:30.474Z,1004.32
2018-01-31T04:11:30.556Z,1004.33
2018-01-31T04:13:24.599Z,1004.30
2018-01-31T04:14:24.709Z,1004.26
2018-01-31T04:16:17.692Z,1004.28
2018-01-31T04:17:17.784Z,1004.23
2018-01-31T04:19:10.810Z,1004.18
2018-01-31T04:20:10.891Z,1004.19
2018-01-31T04:22:04.922Z,1004.13
2018-01-31T04:23:05.007Z,1004.14
2018-01-31T04:24:58.042Z,1004.10
2018-01-31T04:25:58.119Z,1004.08
2018-01-31T04:27:52.166Z,1003.99
2018-01-31T04:28:52.246Z,1003.96
2018-01-31T04:30:45.282Z,1003.89
2018-01-31T04:31:45.356Z,1003.93
2018-01-31T04:33:38.388Z,1003.85
2018-01-31T04:34:38.472Z,1003.82
2018-01-31T04:36:31.507Z,1003.73
2018-01-31T04:37:31.581Z,1003.71
2018-01-31T04:39:24.611Z,1003.71
2018-01-31T04:40:24.693Z,1003.69
2018-01-31T04:42:18.752Z,1003.64
2018-01-31T04:43:18.869Z,1003.64
2018-01-31T04:45:11.856Z,1003.62
2018-01-31T04:46:11.935Z,1003.58
2018-01-31T04:48:04.966Z,1003.54
2018-01-31T04:49:05.046Z,1003.48
2018-01-31T04:50:59.084Z,1003.46
2018-01-31T04:51:59.217Z,1003.47
2018-01-31T04:53:52.200Z,1003.50
2018-01-31T04:54:52.281Z,1003.42
2018-01-31T04:56:45.322Z,1003.33
2018-01-31T04:57:45.402Z,1003.33
2018-01-31T04:59:39.433Z,1003.32
2018-01-31T05:00:39.512Z,1003.27
2018-01-31T05:02:32.545Z,1003.25
2018-01-31T05:03:32.629Z,1003.21
2018-01-31T05:05:25.684Z,1003.18
2018-01-31T05:06:25.746Z,1003.16
2018-01-31T05:08:18.779Z,1003.21
2018-01-31T05:09:18.848Z,1003.16
2018-01-31T05:11:11.890Z,1003.13
2018-01-31T05:12:11.973Z,1003.10
2018-01-31T05:25:16.138Z,1002.74
2018-01-31T05:26:16.224Z,1002.87
2018-01-31T05:28:09.269Z,1002.71
2018-01-31T05:29:09.346Z,1002.72
2018-01-31T05:31:03.382Z,1002.69
2018-01-31T05:32:03.461Z,1002.70
2018-01-31T05:33:56.508Z,1002.63
2018-01-31T05:34:56.572Z,1002.61
2018-01-31T05:36:50.608Z,1002.60
2018-01-31T05:37:50.689Z,1002.54
2018-01-31T05:39:43.721Z,1002.59
2018-01-31T05:40:43.807Z,1002.57
2018-01-31T05:42:37.846Z,1002.49
2018-01-31T05:43:37.925Z,1002.47
2018-01-31T05:45:31.962Z,1002.47
2018-01-31T05:46:32.042Z,1002.45
2018-01-31T05:48:25.077Z,1002.41
2018-01-31T05:49:25.161Z,1002.34
2018-01-31T05:51:18.197Z,1002.36
2018-01-31T05:52:18.277Z,1002.38
2018-01-31T05:54:11.308Z,1002.34
2018-01-31T05:55:11.390Z,1002.33
2018-01-31T05:57:04.444Z,1002.31
2018-01-31T05:58:04.502Z,1002.32
2018-01-31T05:59:57.530Z,1002.29
2018-01-31T06:00:57.613Z,1002.27
2018-01-31T06:02:50.648Z,1002.07
2018-01-31T06:03:50.727Z,1002.18
2018-01-31T06:05:43.762Z,1002.13
2018-01-31T06:06:43.842Z,1002.06
2018-01-31T06:08:36.876Z,1002.11
2018-01-31T06:09:36.957Z,1002.08
2018-01-31T06:11:29.985Z,1002.05
2018-01-31T06:12:30.067Z,1002.04
2018-01-31T06:14:23.100Z,1001.99
2018-01-31T06:15:23.180Z,1002.02
2018-01-31T06:17:16.216Z,1001.93
2018-01-31T06:18:16.298Z,1001.96
2018-01-31T06:20:09.335Z,1001.91
2018-01-31T06:21:09.414Z,1002.02
2018-01-31T06:23:02.450Z,1001.93
2018-01-31T06:24:02.532Z,1001.92
2018-01-31T06:25:55.595Z,1001.85
2018-01-31T06:26:55.645Z,1001.90
2018-01-31T06:28:48.679Z,1001.79
2018-01-31T06:29:48.755Z,1001.76
2018-01-31T06:31:41.786Z,1001.66
2018-01-31T06:32:41.866Z,1001.64
2018-01-31T06:34:34.897Z,1001.62
2018-01-31T06:35:34.976Z,1001.56
2018-01-31T06:37:28.009Z,1001.47
2018-01-31T06:38:28.090Z,1001.53
2018-01-31T06:40:21.138Z,1001.37
2018-01-31T06:41:21.220Z,1001.39
2018-01-31T06:43:14.253Z,1001.36
2018-01-31T06:44:14.331Z,1001.35
2018-01-31T06:46:08.374Z,1001.43
2018-01-31T06:47:08.456Z,1001.28
2018-01-31T06:49:01.808Z,1001.28
2018-01-31T06:50:01.576Z,1001.23
2018-01-31T06:51:54.604Z,1001.33
2018-01-31T06:52:54.685Z,1001.21
2018-01-31T06:54:47.722Z,1001.24
2018-01-31T06:55:47.798Z,1001.43
2018-01-31T06:57:40.830Z,1001.19
2018-01-31T06:58:40.909Z,1001.20
2018-01-31T07:00:33.943Z,1001.19
2018-01-31T07:01:34.023Z,1001.20
2018-01-31T07:03:27.053Z,1001.22
2018-01-31T07:04:27.134Z,1001.06
2018-01-31T07:06:20.166Z,1001.10
2018-01-31T07:07:20.247Z,1000.98
2018-01-31T07:09:14.286Z,1001.11
2018-01-31T07:10:14.366Z,1001.07
2018-01-31T07:12:07.417Z,1001.06
2018-01-31T07:13:07.489Z,1001.04
2018-01-31T07:15:00.516Z,1001.03
2018-01-31T07:16:00.608Z,1001.00
2018-01-31T07:17:53.635Z,1001.01
2018-01-31T07:18:53.711Z,1001.06
2018-01-31T07:20:46.739Z,1000.87
2018-01-31T07:21:46.820Z,1000.82
2018-01-31T07:23:39.854Z,1000.86
2018-01-31T07:24:39.934Z,1000.72
2018-01-31T07:26:32.963Z,1000.70
2018-01-31T07:27:33.061Z,1000.70
2018-01-31T07:29:26.082Z,1000.74
2018-01-31T07:30:26.160Z,1000.62
2018-01-31T07:32:19.214Z,1000.74
2018-01-31T07:33:19.266Z,1000.63
2018-01-31T07:35:13.311Z,1000.60
2018-01-31T07:36:13.381Z,1000.68
2018-01-31T07:38:06.423Z,1000.50
2018-01-31T07:39:06.493Z,1000.53
2018-01-31T07:40:59.533Z,1000.53
2018-01-31T07:41:59.611Z,1000.51
2018-01-31T07:43:52.646Z,1000.44
2018-01-31T07:44:52.737Z,1000.30
2018-01-31T07:46:45.767Z,1000.43
2018-01-31T07:47:45.841Z,1000.44
2018-01-31T07:49:38.876Z,1000.28
2018-01-31T07:50:38.949Z,1000.25
2018-01-31T07:52:31.988Z,1000.28
2018-01-31T07:53:32.069Z,1000.21
2018-01-31T07:55:25.096Z,1000.34
2018-01-31T07:56:25.179Z,1000.25
2018-01-31T07:58:18.234Z,1000.20
2018-01-31T07:59:18.308Z,1000.18
2018-01-31T08:00:18.397Z,1000.22
2018-01-31T08:01:18.474Z,1000.21
2018-01-31T08:02:18.566Z,1000.12
2018-01-31T08:03:18.644Z,1000.11
2018-01-31T08:04:18.741Z,1000.18
2018-01-31T08:05:18.819Z,1000.04
2018-01-31T08:06:18.905Z,999.99
2018-01-31T08:07:18.991Z,1000.15
2018-01-31T08:08:19.073Z,999.97
2018-01-31T08:09:19.156Z,999.95
2018-01-31T08:10:19.247Z,999.97
2018-01-31T08:11:19.326Z,999.94
2018-01-31T08:12:19.412Z,999.93
2018-01-31T08:13:19.496Z,999.91
2018-01-31T08:14:19.584Z,999.98
2018-01-31T08:15:19.667Z,1000.02
2018-01-31T08:16:19.756Z,999.89
2018-01-31T08:17:19.838Z,999.95
2018-01-31T08:18:19.920Z,999.92
2018-01-31T08:19:20.010Z,999.89
2018-01-31T08:20:20.092Z,999.94
2018-01-31T08:21:20.181Z,999.82
2018-01-31T08:22:20.264Z,999.84
2018-01-31T08:23:20.348Z,999.89
2018-01-31T08:24:20.429Z,999.85
2018-01-31T08:25:20.513Z,999.83
2018-01-31T08:26:20.603Z,999.80
2018-01-31T08:27:20.688Z,999.82
2018-01-31T08:28:20.779Z,999.81
2018-01-31T08:29:20.864Z,999.77
2018-01-31T08:30:20.961Z,999.78
2018-01-31T08:31:21.033Z,999.87
2018-01-31T08:32:21.115Z,999.92
2018-01-31T08:33:21.207Z,999.84
2018-01-31T08:34:21.285Z,999.80
2018-01-31T08:35:21.379Z,999.85
2018-01-31T08:36:21.463Z,999.74
2018-01-31T08:37:21.552Z,999.74
2018-01-31T08:38:21.641Z,999.69
2018-01-31T08:39:21.730Z,999.73
2018-01-31T08:40:21.805Z,999.76
2018-01-31T08:41:21.903Z,999.66
2018-01-31T08:42:21.985Z,999.70
2018-01-31T08:43:22.093Z,999.64
2018-01-31T08:44:22.168Z,999.67
2018-01-31T08:45:22.246Z,999.60
2018-01-31T08:46:22.336Z,999.63
2018-01-31T08:47:22.410Z,999.61
2018-01-31T08:48:22.497Z,999.55
2018-01-31T08:49:22.590Z,999.57
2018-01-31T08:50:22.692Z,999.51
2018-01-31T08:51:22.763Z,999.61
2018-01-31T08:52:22.849Z,999.55
2018-01-31T08:53:22.929Z,999.38
2018-01-31T08:54:23.009Z,999.47
2018-01-31T08:55:27.535Z,999.37
2018-01-31T08:56:27.599Z,999.43
2018-01-31T08:58:20.628Z,999.34
2018-01-31T08:59:44.236Z,999.49
2018-01-31T09:00:44.317Z,999.43
2018-01-31T09:02:37.333Z,999.34
2018-01-31T09:03:37.385Z,999.47
2018-01-31T09:06:00.695Z,999.46
2018-01-31T09:07:00.763Z,999.38
2018-01-31T09:08:53.826Z,999.29
2018-01-31T09:09:53.896Z,999.35
2018-01-31T09:11:46.924Z,999.27
2018-01-31T09:12:47.009Z,999.33
2018-01-31T09:14:40.171Z,999.28
2018-01-31T09:15:40.128Z,999.13
2018-01-31T09:17:33.170Z,999.17
2018-01-31T09:18:33.254Z,999.20
2018-01-31T09:20:26.322Z,999.18
2018-01-31T09:21:26.378Z,999.08
2018-01-31T09:23:19.410Z,999.04
2018-01-31T09:24:19.495Z,999.19
2018-01-31T09:26:12.794Z,998.97
2018-01-31T09:27:12.608Z,999.01
2018-01-31T09:29:05.652Z,998.92
2018-01-31T09:30:05.738Z,999.00
2018-01-31T09:31:58.776Z,998.90
2018-01-31T09:32:58.845Z,998.81
2018-01-31T09:34:51.896Z,998.99
2018-01-31T09:35:51.976Z,998.91
2018-01-31T09:37:45.137Z,998.78
2018-01-31T09:38:45.098Z,998.73
2018-01-31T09:40:38.140Z,998.65
2018-01-31T09:41:38.225Z,998.68
2018-01-31T09:43:31.280Z,998.59
2018-01-31T09:44:31.348Z,998.60
2018-01-31T09:46:24.393Z,998.66
2018-01-31T09:47:24.475Z,998.53
2018-01-31T09:49:18.851Z,998.64
2018-01-31T09:50:18.611Z,998.53
2018-01-31T09:52:11.653Z,998.69
2018-01-31T09:53:11.739Z,998.46
2018-01-31T09:55:04.838Z,998.52
2018-01-31T09:56:04.885Z,998.44
2018-01-31T09:57:57.912Z,998.43
2018-01-31T09:58:57.989Z,998.34
2018-01-31T10:00:51.057Z,998.31
2018-01-31T10:01:51.121Z,998.42
2018-01-31T10:03:44.165Z,998.37
2018-01-31T10:04:44.246Z,998.32
2018-01-31T10:06:37.303Z,998.33
2018-01-31T10:07:37.376Z,998.27
2018-01-31T10:09:30.421Z,998.25
2018-01-31T10:10:30.546Z,998.45
2018-01-31T10:12:23.733Z,998.24
2018-01-31T10:13:23.627Z,998.21
2018-01-31T10:15:16.676Z,998.15
2018-01-31T10:16:16.754Z,998.01
2018-01-31T10:18:09.813Z,998.03
2018-01-31T10:19:09.879Z,998.06
2018-01-31T10:21:02.921Z,997.91
2018-01-31T10:22:03.001Z,997.86
2018-01-31T10:23:58.059Z,997.84
2018-01-31T10:24:58.131Z,997.88
2018-01-31T10:25:58.208Z,997.94
2018-01-31T10:26:58.294Z,998.00
2018-01-31T10:27:58.386Z,997.77
2018-01-31T10:28:58.471Z,997.85
2018-01-31T10:29:58.556Z,997.77
2018-01-31T10:30:58.644Z,997.89
2018-01-31T10:31:58.729Z,997.81
2018-01-31T10:32:58.820Z,997.73
2018-01-31T10:33:58.901Z,997.72
2018-01-31T10:34:58.992Z,997.71
2018-01-31T10:35:59.084Z,997.71
2018-01-31T10:36:59.165Z,997.66
2018-01-31T10:37:59.253Z,997.77
2018-01-31T10:38:59.341Z,997.63
2018-01-31T10:39:59.430Z,997.64
2018-01-31T10:40:59.521Z,997.63
2018-01-31T10:41:59.613Z,997.57
2018-01-31T10:42:59.695Z,997.57
2018-01-31T10:43:59.773Z,997.58
2018-01-31T10:44:59.871Z,997.57
2018-01-31T10:45:59.964Z,997.48
2018-01-31T10:47:00.038Z,997.62
2018-01-31T10:48:00.126Z,997.50
2018-01-31T10:49:00.215Z,997.49
2018-01-31T10:50:00.299Z,997.56
2018-01-31T10:51:00.431Z,997.44
2018-01-31T10:52:00.478Z,997.38
2018-01-31T10:53:00.568Z,997.35
2018-01-31T10:57:28.820Z,997.29
2018-01-31T10:58:00.995Z,997.18
2018-01-31T10:59:01.083Z,997.21
2018-01-31T11:00:01.174Z,997.16
2018-01-31T11:01:01.259Z,997.20
2018-01-31T11:02:01.348Z,997.16
2018-01-31T11:03:01.491Z,997.10
2018-01-31T11:04:01.529Z,997.18
2018-01-31T11:05:01.609Z,997.10
2018-01-31T11:06:01.693Z,997.07
2018-01-31T11:07:01.791Z,997.08
2018-01-31T11:08:01.879Z,997.03
2018-01-31T11:09:01.963Z,997.13
2018-01-31T11:10:02.046Z,997.05
2018-01-31T11:11:02.133Z,996.94
2018-01-31T11:12:02.221Z,996.91
2018-01-31T11:13:02.305Z,996.91
2018-01-31T11:14:02.405Z,996.91
2018-01-31T11:15:02.483Z,996.80
2018-01-31T11:16:02.571Z,996.86
2018-01-31T11:17:02.654Z,996.71
2018-01-31T11:18:02.743Z,996.72
2018-01-31T11:19:02.833Z,996.80
2018-01-31T11:20:02.915Z,996.63
2018-01-31T11:21:03.007Z,996.81
2018-01-31T11:22:03.094Z,996.67
2018-01-31T11:23:03.179Z,996.79
2018-01-31T11:24:03.271Z,996.59
2018-01-31T11:25:03.353Z,996.62
2018-01-31T11:26:03.445Z,996.55
2018-01-31T11:27:03.531Z,996.50
2018-01-31T11:28:03.618Z,996.52
2018-01-31T11:29:03.702Z,996.50
2018-01-31T11:30:03.810Z,996.46
2018-01-31T11:31:03.913Z,996.47
2018-01-31T11:32:03.986Z,996.37
2018-01-31T11:33:04.054Z,996.47
2018-01-31T11:34:04.138Z,996.31
2018-01-31T11:35:04.235Z,996.44
2018-01-31T11:36:04.315Z,996.26
2018-01-31T11:37:04.401Z,996.28
2018-01-31T11:38:04.487Z,996.26
2018-01-31T11:39:04.577Z,996.27
2018-01-31T11:40:04.666Z,996.27
2018-01-31T11:41:04.754Z,996.27
2018-01-31T11:42:04.834Z,996.24
2018-01-31T11:43:04.920Z,996.24
2018-01-31T11:44:05.009Z,996.37
2018-01-31T11:45:05.098Z,996.24
2018-01-31T11:46:05.189Z,996.25
2018-01-31T11:47:05.272Z,996.15
2018-01-31T11:48:05.361Z,996.37
2018-01-31T11:49:05.454Z,996.16
2018-01-31T11:50:05.533Z,996.17
2018-01-31T11:51:05.622Z,996.11
2018-01-31T11:52:05.715Z,996.02
2018-01-31T11:53:05.807Z,995.96
2018-01-31T11:54:05.888Z,996.00
2018-01-31T11:55:05.969Z,995.84
2018-01-31T11:56:06.054Z,996.03
2018-01-31T11:57:06.149Z,996.19
2018-01-31T11:58:06.230Z,995.82
2018-01-31T11:59:06.330Z,995.75
2018-01-31T12:00:06.414Z,995.83
2018-01-31T12:01:06.500Z,995.73
2018-01-31T12:02:06.585Z,995.83
2018-01-31T12:03:06.677Z,995.93
2018-01-31T12:04:06.760Z,996.01
2018-01-31T12:05:06.846Z,995.85
2018-01-31T12:06:06.935Z,995.69
2018-01-31T12:07:07.024Z,995.69
2018-01-31T12:08:07.109Z,995.68
2018-01-31T12:09:07.197Z,995.62
2018-01-31T12:10:07.286Z,995.85
2018-01-31T12:11:07.368Z,995.68
2018-01-31T12:12:07.461Z,996.12
2018-01-31T12:13:07.546Z,995.91
2018-01-31T12:14:07.631Z,995.99
2018-01-31T12:15:07.727Z,996.05
2018-01-31T12:16:07.809Z,995.91
2018-01-31T12:17:07.903Z,995.93
2018-01-31T12:18:07.982Z,995.90
2018-01-31T12:19:08.071Z,995.90
2018-01-31T12:20:08.159Z,996.13
2018-01-31T12:21:08.252Z,996.12
2018-01-31T12:22:08.337Z,996.12
2018-01-31T12:23:08.425Z,996.05
2018-01-31T12:24:08.513Z,996.19
2018-01-31T12:25:08.598Z,995.96
2018-01-31T12:26:08.690Z,996.06
2018-01-31T12:27:08.772Z,996.00
2018-01-31T12:28:08.865Z,996.14
2018-01-31T12:29:08.944Z,996.11
2018-01-31T12:30:09.037Z,995.91
2018-01-31T12:31:09.151Z,996.01
2018-01-31T12:32:09.208Z,995.92
2018-01-31T12:33:09.300Z,996.10
2018-01-31T12:34:09.385Z,995.94
2018-01-31T12:35:09.478Z,995.99
2018-01-31T12:36:09.557Z,995.90
2018-01-31T12:37:09.640Z,995.91
2018-01-31T12:38:09.737Z,995.85
2018-01-31T12:39:09.825Z,995.93
2018-01-31T12:40:09.908Z,996.02
2018-01-31T12:41:09.997Z,995.98
2018-01-31T12:42:10.087Z,996.05
2018-01-31T12:43:10.177Z,995.88
2018-01-31T12:44:10.261Z,995.89
2018-01-31T12:45:10.345Z,996.02
2018-01-31T12:46:10.440Z,995.90
2018-01-31T12:47:10.532Z,995.87
2018-01-31T12:48:10.611Z,995.78
2018-01-31T12:49:10.702Z,995.74
2018-01-31T12:50:10.800Z,995.74
2018-01-31T12:51:10.883Z,995.70
2018-01-31T12:52:10.973Z,995.67
2018-01-31T12:53:11.065Z,995.74
2018-01-31T12:54:11.158Z,995.72
2018-01-31T12:55:11.238Z,995.78
2018-01-31T12:56:11.337Z,995.73
2018-01-31T12:57:11.421Z,995.70
2018-01-31T12:58:11.512Z,995.70
2018-01-31T12:59:11.608Z,995.64
2018-01-31T13:00:11.697Z,995.79
2018-01-31T13:01:11.781Z,995.65
2018-01-31T13:02:11.876Z,995.67
2018-01-31T13:03:11.963Z,995.58
2018-01-31T13:04:12.057Z,995.62
2018-01-31T13:05:12.142Z,995.86
2018-01-31T13:06:12.227Z,995.69
2018-01-31T13:07:12.329Z,995.44
2018-01-31T13:08:12.408Z,995.57
2018-01-31T13:09:12.531Z,995.68
2018-01-31T13:10:12.588Z,995.56
2018-01-31T13:11:12.685Z,995.50
2018-01-31T13:12:12.765Z,995.46
2018-01-31T13:13:12.860Z,995.64
2018-01-31T13:14:12.957Z,995.51
2018-01-31T13:15:13.041Z,995.37
2018-01-31T13:16:13.127Z,995.33
2018-01-31T13:17:13.219Z,995.35
2018-01-31T13:18:13.309Z,995.45
2018-01-31T13:19:13.395Z,995.28
2018-01-31T13:20:13.490Z,995.32
2018-01-31T13:21:13.567Z,995.28
2018-01-31T13:22:13.664Z,995.24
2018-01-31T13:23:13.747Z,995.22
2018-01-31T13:24:13.838Z,995.17
2018-01-31T13:25:13.922Z,995.26
2018-01-31T13:26:14.012Z,995.06
2018-01-31T13:27:14.110Z,995.08
2018-01-31T13:28:14.189Z,995.03
2018-01-31T13:29:14.282Z,995.02
2018-01-31T13:30:14.367Z,995.01
2018-01-31T13:31:14.452Z,995.00
2018-01-31T13:32:14.546Z,994.92
2018-01-31T13:33:14.635Z,994.83
2018-01-31T13:34:14.716Z,994.89
2018-01-31T13:35:14.807Z,994.85
2018-01-31T13:36:14.898Z,994.83
2018-01-31T13:37:14.982Z,994.75
2018-01-31T13:38:15.071Z,994.89
2018-01-31T13:39:15.165Z,994.79
2018-01-31T13:40:15.246Z,994.72
2018-01-31T13:41:15.343Z,994.71
2018-01-31T13:42:15.422Z,994.60
2018-01-31T13:43:15.516Z,994.67
2018-01-31T13:44:15.613Z,994.74
2018-01-31T13:45:15.699Z,994.67
2018-01-31T13:46:15.777Z,994.67
2018-01-31T13:47:15.869Z,994.59
2018-01-31T13:48:15.957Z,994.53
2018-01-31T13:49:16.044Z,994.46
2018-01-31T13:50:16.136Z,994.61
2018-01-31T13:51:16.218Z,994.34
2018-01-31T13:52:16.321Z,994.47
2018-01-31T13:53:16.400Z,994.43
2018-01-31T13:54:16.481Z,994.37
2018-01-31T13:55:16.573Z,994.37
2018-01-31T13:56:16.660Z,994.34
2018-01-31T13:57:16.754Z,994.24
2018-01-31T13:58:16.835Z,994.30
2018-01-31T13:59:16.923Z,994.25
2018-01-31T14:00:17.017Z,994.23
2018-01-31T14:01:17.105Z,994.33
2018-01-31T14:02:17.191Z,994.25
2018-01-31T14:03:17.282Z,994.39
2018-01-31T14:04:17.366Z,994.10
2018-01-31T14:05:17.462Z,994.18
2018-01-31T14:06:17.538Z,994.20
2018-01-31T14:07:17.636Z,994.16
2018-01-31T14:08:17.722Z,994.07
2018-01-31T14:09:17.808Z,994.07
2018-01-31T14:10:17.903Z,994.15
2018-01-31T14:11:17.992Z,994.07
2018-01-31T14:12:18.072Z,994.11
2018-01-31T14:13:18.168Z,994.05
2018-01-31T14:14:18.254Z,994.15
2018-01-31T14:15:18.346Z,993.98
2018-01-31T14:16:18.479Z,993.98
2018-01-31T14:17:18.518Z,993.96
2018-01-31T14:18:18.603Z,994.04
2018-01-31T14:19:18.693Z,994.06
2018-01-31T14:20:18.784Z,994.01
2018-01-31T14:21:18.868Z,994.08
2018-01-31T14:22:18.956Z,994.01
2018-01-31T14:23:19.041Z,994.06
2018-01-31T14:24:19.137Z,994.00
2018-01-31T14:25:19.219Z,994.07
2018-01-31T14:26:19.317Z,994.01
2018-01-31T14:27:19.412Z,994.12
2018-01-31T14:28:19.491Z,993.88
2018-01-31T14:29:19.575Z,993.81
2018-01-31T14:30:19.668Z,993.88
2018-01-31T14:31:19.751Z,993.80
2018-01-31T14:32:19.841Z,993.85
2018-01-31T14:33:19.935Z,993.85
2018-01-31T14:34:20.016Z,993.81
2018-01-31T14:35:20.109Z,993.81
2018-01-31T14:36:20.202Z,993.88
2018-01-31T14:37:20.297Z,993.80
2018-01-31T14:38:20.374Z,993.83
2018-01-31T14:39:20.462Z,993.74
2018-01-31T14:40:20.553Z,993.80
2018-01-31T14:41:20.632Z,993.73
2018-01-31T14:42:20.741Z,993.80
2018-01-31T14:43:20.829Z,993.85
2018-01-31T14:44:20.903Z,993.75
2018-01-31T14:45:20.991Z,993.72
2018-01-31T14:46:21.073Z,993.74
2018-01-31T14:47:21.166Z,993.71
2018-01-31T14:48:21.256Z,993.65
2018-01-31T14:49:21.343Z,993.67
2018-01-31T14:50:21.431Z,993.68
2018-01-31T14:51:21.521Z,993.56
2018-01-31T14:52:21.603Z,993.83
2018-01-31T14:53:21.704Z,993.68
2018-01-31T14:54:21.789Z,993.66
2018-01-31T14:55:21.869Z,993.64
2018-01-31T14:56:21.958Z,993.65
2018-01-31T14:57:22.049Z,993.44
2018-01-31T14:58:22.137Z,993.53
2018-01-31T14:59:22.227Z,993.54
2018-01-31T15:00:22.310Z,993.57
2018-01-31T15:01:22.396Z,993.57
2018-01-31T15:02:22.485Z,993.48
2018-01-31T15:03:22.574Z,993.43
2018-01-31T15:04:22.663Z,993.41
2018-01-31T15:05:22.751Z,993.42
2018-01-31T15:06:22.868Z,993.44
2018-01-31T15:07:22.922Z,993.37
2018-01-31T15:08:23.009Z,993.27
2018-01-31T15:09:23.102Z,993.20
2018-01-31T15:10:23.184Z,993.24
2018-01-31T15:11:23.275Z,993.19
2018-01-31T15:12:23.361Z,993.28
2018-01-31T15:13:23.449Z,993.27
2018-01-31T15:14:23.542Z,993.20
2018-01-31T15:15:23.622Z,993.11
2018-01-31T15:16:23.714Z,993.17
2018-01-31T15:17:23.804Z,993.21
2018-01-31T15:18:23.890Z,993.13
2018-01-31T15:19:23.985Z,993.07
2018-01-31T15:20:24.064Z,993.01
2018-01-31T15:21:24.151Z,992.99
2018-01-31T15:22:24.237Z,993.00
2018-01-31T15:23:24.329Z,993.06
2018-01-31T15:24:24.414Z,993.00
2018-01-31T15:25:24.506Z,992.93
2018-01-31T15:26:24.594Z,992.92
2018-01-31T15:27:24.669Z,992.92
2018-01-31T15:28:24.769Z,992.89
2018-01-31T15:29:24.844Z,992.85
2018-01-31T15:30:24.933Z,992.93
2018-01-31T15:31:25.028Z,992.86
2018-01-31T15:32:25.119Z,992.88
2018-01-31T15:33:25.198Z,992.93
2018-01-31T15:34:25.287Z,992.95
2018-01-31T15:35:25.371Z,992.92
2018-01-31T15:36:25.467Z,992.89
2018-01-31T15:37:25.545Z,992.88
2018-01-31T15:38:25.635Z,992.92
2018-01-31T15:39:25.721Z,993.05
2018-01-31T15:40:25.811Z,993.04
2018-01-31T15:41:25.905Z,993.10
2018-01-31T15:42:25.989Z,992.84
2018-01-31T15:43:26.077Z,993.17
2018-01-31T15:44:26.161Z,992.95
2018-01-31T15:45:26.247Z,992.96
2018-01-31T15:46:26.338Z,992.95
2018-01-31T15:47:26.429Z,992.89
2018-01-31T15:48:26.514Z,992.89
2018-01-31T15:49:26.596Z,992.94
2018-01-31T15:50:26.686Z,992.87
2018-01-31T15:51:26.775Z,992.88
2018-01-31T15:52:26.862Z,992.87
2018-01-31T15:53:26.947Z,992.92
2018-01-31T15:54:27.035Z,992.82
2018-01-31T15:55:27.125Z,992.88
2018-01-31T15:56:27.207Z,993.01
2018-01-31T15:57:27.295Z,992.87
2018-01-31T15:58:27.382Z,992.91
2018-01-31T15:59:27.470Z,992.99
2018-01-31T16:00:27.560Z,992.94
2018-01-31T16:01:27.643Z,992.93
2018-01-31T16:02:27.737Z,992.94
2018-01-31T16:03:27.823Z,992.88
2018-01-31T16:04:27.917Z,992.95
2018-01-31T16:05:27.997Z,992.82
2018-01-31T16:06:28.085Z,992.81
2018-01-31T16:07:28.190Z,992.78
2018-01-31T16:08:28.261Z,992.86
2018-01-31T16:09:28.349Z,992.77
2018-01-31T16:10:28.434Z,992.75
2018-01-31T16:11:28.521Z,992.69
2018-01-31T16:12:28.604Z,992.80
2018-01-31T16:13:28.694Z,992.75
2018-01-31T16:14:28.784Z,992.77
2018-01-31T16:15:28.867Z,992.75
2018-01-31T16:16:28.956Z,992.65
2018-01-31T16:17:29.042Z,992.66
2018-01-31T16:18:29.132Z,992.62
2018-01-31T16:19:29.220Z,992.72
2018-01-31T16:20:29.305Z,992.59
2018-01-31T16:21:29.392Z,992.66
2018-01-31T16:22:29.477Z,992.64
2018-01-31T16:23:29.566Z,992.57
2018-01-31T16:24:29.653Z,992.50
2018-01-31T16:25:29.741Z,992.53
2018-01-31T16:26:29.826Z,992.49
2018-01-31T16:27:29.940Z,992.50
2018-01-31T16:28:30.007Z,992.52
2018-01-31T16:29:30.085Z,992.45
2018-01-31T16:30:30.173Z,992.49
2018-01-31T16:31:30.260Z,992.44
2018-01-31T16:32:30.351Z,992.53
2018-01-31T16:33:30.438Z,992.37
2018-01-31T16:34:30.517Z,992.50
2018-01-31T16:35:30.612Z,992.39
2018-01-31T16:36:30.701Z,992.64
2018-01-31T16:37:30.783Z,993.08
2018-01-31T16:38:30.868Z,993.20
2018-01-31T16:39:30.977Z,993.24
2018-01-31T16:40:31.039Z,993.29
2018-01-31T16:41:31.133Z,993.27
2018-01-31T16:42:31.216Z,993.39
2018-01-31T16:43:31.305Z,993.34